Página principal
METAR-TAF:

METAR-TAF

Aeroportos :

Aeroporto Internacional de Damasco

Damasco, Síria

latitude: 33-25N, longitude: 036-31E, altura: 608 m

Observação actual do tempo

O boletim foi feito há 16 minutos, às 04:00 UTC
Vento 8 kt de sudoeste
Temperatura 18°C
Humidade 77%
Pressão 1015 hPa
Visibilidade 10 km ou mais
sem nuvens abaixo de 1500 metros e sem cumulonimbus

METAR: OSDI 240400Z 23008KT CAVOK 18/14 Q1015

Hora: 07:16 (04:16 UTC)

Previsão

Previsão válida de 23 às 18 UTC a 24 às 24 UTC
Vento 10 kt de su-sudoeste
Visibilidade 10 km ou mais
Poucas nuvensa uma altura de 3000 ft
Temporariamente
de 24 às 12 UTC a 24 às 18 UTC
Vento 10 kt de oes-sudoeste com rajadas de 15 kt
Visibilidade: 8000 m
Poucas nuvensa uma altura de 3000 ft

TAF: OSDI 2318/2424 21010KT 9999 FEW030 TEMPO 2412/2418 24010G15KT 8000 FEW030

Observações e previsões do tempo de mais de 4000 aeroportos (mensagens METAR e TAF).

As estações disponíveis são os pontos amarelos e vermelhos sobre o mapa.

Mova o rato sobre o mapa para ver o nome da estação.

Depois clique no ponto para visualizar as observações e previsões meteorológicas.

Para alterar o mapa : clique nos botões verdes com uma cruz preta para aumentar o zoom; no botão verde com uma pitada de zoom; ou nas setas verdes para mapas adjacentes.


METAR-TAF: